Aérodrome :
LOGIN :

S'inscrire | Disclaimer

   EN    FR    IT 

 










Légende :    VFR   VFR Marginal   IFR   IFR Intensif   IFR Très Intensif
Visi : 
Plafond : 
>= 8 km
>= 3000ft
5 à 8 km
1000 à 3000 ft
1500m à 5 km
500 à 1000 ft
800 à 1500m
200 à 500 ft
< 800m
< 200 ft
Symboles :   Orages  Brouillard  Fortes neiges  Fortes précipitations  Vent > 20 kt
SIGMETs :   Divers  Orages  Givrage  Turbulence  Onde Orograph.  Cendres Volcan.






- Altitude de l'aérodrome : 1079 ft


ETIK - Illesheim Air Base

DERNIER METAR :
  • 291656Z AUTO 06009KT 9999 FEW060 BKN080 19/05 A3023 RMK AO2 SLP238 T01930050 FZRANO $

METARs EXPIRÉS :
  • 291556Z AUTO 05008KT 9999 BKN090 19/05 A3024 RMK AO2 RAB27E45 SLP244 P0000 T01870048 FZRANO $
  • 291545Z AUTO 07008KT 9999 BKN085 19/05 A3025 RMK AO2 RAB27E45 SLP247 FZRANO $
  • 291527Z AUTO 05013G16KT 9999 -RA BKN090 19/05 A3025 RMK AO2 RAB27 SLP247 FZRANO $
  • 291456Z AUTO 08007G15KT 9999 BKN070 BKN085 19/04 A3025 RMK AO2 SLP247 60000 T01880042 57016 FZRANO

TAF TAF ETIK
Valide du 29 à 14h jusqu'au 30 à 20h UTC


291406Z 2914/3020 06009KT 9999 BKN060 QNH3024INS
BECMG 2919/2920 05006KT 9999 SCT060 BKN085 QNH3023INS
BECMG 3005/3006 05009KT 9999 FEW035 SCT050 QNH3023INS
BECMG 3009/3010 04012G18KT 9999 SCT050 BKN075 QNH3020INS TX20/3014Z TN05/3003Z LAST NO AMDS AFT 29/14Z NEXT 01/22Z



MET'MAP, la Météo Aéronautique d'un coup d'oeil ! - Copyright ORBIFLY Décembre 2007 - Disclaimer

ORBIFLY MET'MAP TEAM :

Programmation & Développement : Alexandra Zaïnal
Sur une idée originale de : Baudouin d'Aumeries
Assistance à la programmation : Marc-Olivier Méhu
Soutien technique & logistique : Manuel Goepfert

Contact : metmap@orbifly.com




SOURCES & CREDITS :

   NOAA